createdAt,value
2022-09-22T00:00:59.230Z,15.19
2022-09-22T00:01:59.196Z,15.17
2022-09-22T00:02:59.127Z,15.25
2022-09-22T00:03:59.129Z,15.23
2022-09-22T00:04:59.123Z,15.20
2022-09-22T00:05:59.128Z,15.17
2022-09-22T00:06:59.121Z,15.14
2022-09-22T00:07:59.123Z,15.13
2022-09-22T00:08:59.129Z,15.13
2022-09-22T00:09:59.126Z,15.16
2022-09-22T00:10:59.144Z,15.11
2022-09-22T00:11:59.126Z,15.10
2022-09-22T00:12:59.124Z,15.01
2022-09-22T00:13:59.125Z,15.03
2022-09-22T00:14:59.119Z,14.96
2022-09-22T00:15:59.177Z,14.91
2022-09-22T00:16:59.119Z,14.92
2022-09-22T00:17:59.120Z,14.91
2022-09-22T00:18:59.447Z,14.88
2022-09-22T00:19:59.121Z,14.94
2022-09-22T00:20:59.123Z,14.84
2022-09-22T00:21:59.120Z,14.89
2022-09-22T00:22:59.119Z,14.78
2022-09-22T00:23:59.116Z,14.80
2022-09-22T00:24:59.117Z,14.81
2022-09-22T00:25:59.117Z,14.84
2022-09-22T00:26:59.135Z,14.83
2022-09-22T00:27:59.116Z,14.84
2022-09-22T00:28:59.115Z,14.80
2022-09-22T00:29:59.118Z,14.81
2022-09-22T00:30:59.115Z,14.83
2022-09-22T00:32:03.552Z,14.77
2022-09-22T00:32:59.114Z,14.80
2022-09-22T00:33:59.115Z,14.88
2022-09-22T00:34:59.111Z,14.83
2022-09-22T00:35:59.113Z,14.81
2022-09-22T00:36:59.114Z,14.81
2022-09-22T00:37:59.115Z,14.78
2022-09-22T00:38:59.208Z,14.78
2022-09-22T00:39:59.115Z,14.78
2022-09-22T00:40:59.110Z,14.73
2022-09-22T00:41:59.116Z,14.78
2022-09-22T00:42:59.131Z,14.73
2022-09-22T00:43:59.109Z,14.80
2022-09-22T00:44:59.116Z,14.69
2022-09-22T00:45:59.108Z,14.60
2022-09-22T00:46:59.204Z,14.61
2022-09-22T00:47:59.111Z,14.70
2022-09-22T00:48:59.105Z,14.62
2022-09-22T00:49:59.108Z,14.69
2022-09-22T00:50:59.110Z,14.65
2022-09-22T00:51:59.111Z,14.52
2022-09-22T00:52:59.110Z,14.58
2022-09-22T00:53:59.103Z,14.58
2022-09-22T00:54:59.107Z,14.51
2022-09-22T00:55:59.104Z,14.55
2022-09-22T00:56:59.103Z,14.58
2022-09-22T00:57:59.106Z,14.50
2022-09-22T00:58:59.122Z,14.54
2022-09-22T00:59:59.103Z,14.54
2022-09-22T01:00:59.287Z,14.50
2022-09-22T01:01:59.183Z,14.52
2022-09-22T01:02:59.103Z,14.42
2022-09-22T01:03:59.105Z,14.47
2022-09-22T01:04:59.100Z,14.42
2022-09-22T01:05:59.103Z,14.39
2022-09-22T01:06:59.101Z,14.42
2022-09-22T01:07:59.101Z,14.39
2022-09-22T01:08:59.100Z,14.35
2022-09-22T01:09:59.103Z,14.45
2022-09-22T01:10:59.101Z,14.40
2022-09-22T01:11:59.095Z,14.39
2022-09-22T01:12:59.106Z,14.40
2022-09-22T01:13:59.099Z,14.37
2022-09-22T01:14:59.126Z,14.37
2022-09-22T01:15:59.141Z,14.42
2022-09-22T01:16:59.104Z,14.40
2022-09-22T01:17:59.098Z,14.39
2022-09-22T01:18:59.097Z,14.39
2022-09-22T01:19:59.099Z,14.33
2022-09-22T01:20:59.093Z,14.40
2022-09-22T01:21:59.098Z,14.33
2022-09-22T01:22:59.092Z,14.40
2022-09-22T01:23:59.127Z,14.43
2022-09-22T01:24:59.092Z,14.43
2022-09-22T01:25:59.093Z,14.42
2022-09-22T01:26:59.090Z,14.43
2022-09-22T01:27:59.093Z,14.39
2022-09-22T01:28:59.092Z,14.43
2022-09-22T01:29:59.089Z,14.43
2022-09-22T01:30:59.203Z,14.43
2022-09-22T01:31:59.091Z,14.40
2022-09-22T01:32:59.094Z,14.45
2022-09-22T01:33:59.091Z,14.43
2022-09-22T01:34:59.093Z,14.39
2022-09-22T01:35:59.090Z,14.43
2022-09-22T01:36:59.088Z,14.45
2022-09-22T01:37:59.086Z,14.51
2022-09-22T01:38:59.089Z,14.43
2022-09-22T01:39:59.087Z,14.47
2022-09-22T01:40:59.093Z,14.45
2022-09-22T01:41:59.084Z,14.46
2022-09-22T01:42:59.088Z,14.46
2022-09-22T01:43:59.085Z,14.57
2022-09-22T01:44:59.088Z,14.43
2022-09-22T01:45:59.190Z,14.51
2022-09-22T01:46:59.106Z,14.42
2022-09-22T01:47:59.085Z,14.46
2022-09-22T01:48:59.088Z,14.43
2022-09-22T01:49:59.082Z,14.45
2022-09-22T01:50:59.090Z,14.42
2022-09-22T01:51:59.081Z,14.43
2022-09-22T01:52:59.092Z,14.37
2022-09-22T01:53:59.084Z,14.45
2022-09-22T01:54:59.080Z,14.37
2022-09-22T01:55:59.083Z,14.33
2022-09-22T01:56:59.078Z,14.37
2022-09-22T01:57:59.075Z,14.25
2022-09-22T01:58:59.136Z,14.29
2022-09-22T01:59:59.080Z,14.27
2022-09-22T02:00:59.074Z,14.25
2022-09-22T02:01:59.234Z,14.21
2022-09-22T02:02:59.170Z,14.24
2022-09-22T02:03:59.082Z,14.18
2022-09-22T02:04:59.075Z,14.24
2022-09-22T02:05:59.076Z,14.15
2022-09-22T02:06:59.070Z,14.12
2022-09-22T02:07:59.074Z,14.15
2022-09-22T02:08:59.186Z,14.17
2022-09-22T02:09:59.071Z,14.12
2022-09-22T02:10:59.074Z,14.09
2022-09-22T02:11:59.069Z,14.09
2022-09-22T02:12:59.070Z,14.06
2022-09-22T02:13:59.069Z,13.96
2022-09-22T02:14:59.072Z,13.92
2022-09-22T02:15:59.130Z,13.92
2022-09-22T02:16:59.070Z,13.82
2022-09-22T02:17:59.069Z,13.91
2022-09-22T02:19:11.602Z,13.89
2022-09-22T02:19:59.067Z,13.84
2022-09-22T02:20:59.069Z,13.79
2022-09-22T02:21:59.065Z,13.70
2022-09-22T02:22:59.066Z,13.75
2022-09-22T02:23:59.109Z,13.69
2022-09-22T02:24:59.063Z,13.64
2022-09-22T02:25:59.063Z,13.63
2022-09-22T02:26:59.067Z,13.77
2022-09-22T02:27:59.061Z,13.62
2022-09-22T02:28:59.060Z,13.70
2022-09-22T02:29:59.068Z,13.71
2022-09-22T02:31:18.920Z,13.60
2022-09-22T02:31:59.106Z,13.64
2022-09-22T02:32:59.060Z,13.63
2022-09-22T02:33:59.071Z,13.60
2022-09-22T02:34:59.085Z,13.55
2022-09-22T02:35:59.059Z,13.57
2022-09-22T02:36:59.058Z,13.55
2022-09-22T02:37:59.059Z,13.57
2022-09-22T02:38:59.173Z,13.54
2022-09-22T02:39:59.061Z,13.57
2022-09-22T02:40:59.058Z,13.57
2022-09-22T02:41:59.109Z,13.60
2022-09-22T02:42:59.063Z,13.51
2022-09-22T02:43:59.048Z,13.52
2022-09-22T02:44:59.055Z,13.54
2022-09-22T02:45:59.175Z,13.48
2022-09-22T02:46:59.047Z,13.41
2022-09-22T02:47:59.053Z,13.41
2022-09-22T02:48:59.051Z,13.38
2022-09-22T02:49:59.049Z,13.41
2022-09-22T02:50:59.075Z,13.33
2022-09-22T02:51:59.050Z,13.38
2022-09-22T02:52:59.044Z,13.29
2022-09-22T02:53:59.131Z,13.28
2022-09-22T02:54:59.382Z,13.25
2022-09-22T02:55:59.048Z,13.19
2022-09-22T02:56:59.048Z,13.23
2022-09-22T02:57:59.040Z,13.15
2022-09-22T02:58:59.041Z,13.19
2022-09-22T02:59:59.043Z,13.17
2022-09-22T03:00:59.049Z,13.12
2022-09-22T03:01:59.131Z,13.12
2022-09-22T03:02:59.039Z,13.12
2022-09-22T03:03:59.042Z,13.08
2022-09-22T03:04:59.112Z,13.10
2022-09-22T03:05:59.040Z,13.12
2022-09-22T03:06:59.060Z,13.07
2022-09-22T03:07:59.038Z,13.04
2022-09-22T03:08:59.041Z,13.17
2022-09-22T03:09:59.036Z,13.01
2022-09-22T03:10:59.039Z,13.04
2022-09-22T03:11:59.034Z,13.00
2022-09-22T03:13:15.482Z,13.04
2022-09-22T03:13:59.032Z,13.01
2022-09-22T03:14:59.035Z,12.86
2022-09-22T03:15:59.063Z,12.83
2022-09-22T03:16:59.037Z,13.00
2022-09-22T03:17:59.031Z,12.87
2022-09-22T03:18:59.031Z,12.86
2022-09-22T03:19:59.032Z,12.83
2022-09-22T03:20:59.028Z,12.93
2022-09-22T03:21:59.031Z,12.86
2022-09-22T03:22:59.050Z,12.87
2022-09-22T03:23:59.025Z,12.85
2022-09-22T03:24:59.023Z,12.78
2022-09-22T03:25:59.028Z,12.83
2022-09-22T03:26:59.022Z,12.79
2022-09-22T03:27:59.035Z,12.83
2022-09-22T03:28:59.022Z,12.79
2022-09-22T03:29:59.019Z,12.75
2022-09-22T03:30:59.086Z,12.72
2022-09-22T03:31:59.022Z,12.78
2022-09-22T03:32:59.017Z,12.74
2022-09-22T03:33:59.017Z,12.71
2022-09-22T03:34:59.020Z,12.70
2022-09-22T03:35:59.016Z,12.67
2022-09-22T03:36:59.016Z,12.67
2022-09-22T03:37:59.017Z,12.60
2022-09-22T03:38:59.044Z,12.67
2022-09-22T03:39:59.013Z,12.64
2022-09-22T03:40:59.020Z,12.54
2022-09-22T03:41:59.067Z,12.56
2022-09-22T03:42:59.015Z,12.54
2022-09-22T03:43:59.007Z,12.54
2022-09-22T03:44:59.012Z,12.54
2022-09-22T03:45:59.129Z,12.39
2022-09-22T03:46:59.007Z,12.29
2022-09-22T03:47:59.007Z,12.29
2022-09-22T03:48:59.005Z,12.38
2022-09-22T03:49:59.008Z,12.34
2022-09-22T03:50:59.004Z,12.35
2022-09-22T03:51:59.004Z,12.27
2022-09-22T03:52:59.005Z,12.20
2022-09-22T03:53:59.093Z,12.17
2022-09-22T03:54:59.031Z,12.14
2022-09-22T03:55:59.002Z,12.17
2022-09-22T03:56:58.996Z,12.14
2022-09-22T03:57:58.997Z,12.14
2022-09-22T03:58:59.000Z,12.20
2022-09-22T03:59:58.996Z,12.12
2022-09-22T04:00:59.052Z,12.12
2022-09-22T04:01:59.064Z,12.10
2022-09-22T04:02:58.995Z,12.14
2022-09-22T04:03:58.991Z,12.09
2022-09-22T04:04:58.995Z,12.09
2022-09-22T04:05:58.988Z,12.09
2022-09-22T04:07:01.245Z,12.07
2022-09-22T04:07:58.989Z,12.07
2022-09-22T04:08:58.997Z,12.01
2022-09-22T04:09:58.989Z,11.99
2022-09-22T04:10:59.015Z,11.99
2022-09-22T04:11:58.992Z,11.88
2022-09-22T04:12:59.313Z,11.96
2022-09-22T04:13:58.988Z,11.96
2022-09-22T04:14:58.989Z,11.95
2022-09-22T04:15:58.983Z,11.96
2022-09-22T04:16:59.089Z,11.95
2022-09-22T04:17:58.979Z,11.96
2022-09-22T04:18:58.979Z,12.02
2022-09-22T04:19:58.981Z,11.90
2022-09-22T04:20:58.979Z,11.90
2022-09-22T04:21:58.981Z,11.91
2022-09-22T04:22:58.976Z,11.86
2022-09-22T04:23:58.977Z,11.90
2022-09-22T04:24:58.973Z,11.90
2022-09-22T04:25:58.976Z,11.88
2022-09-22T04:27:20.887Z,11.96
2022-09-22T04:28:02.320Z,11.98
2022-09-22T04:28:58.972Z,11.95
2022-09-22T04:29:58.970Z,12.05
2022-09-22T04:30:59.007Z,12.04
2022-09-22T04:31:58.977Z,11.88
2022-09-22T04:32:58.967Z,11.90
2022-09-22T04:33:58.966Z,11.83
2022-09-22T04:34:58.968Z,11.76
2022-09-22T04:35:58.964Z,11.73
2022-09-22T04:36:58.967Z,11.79
2022-09-22T04:37:58.964Z,11.70
2022-09-22T04:38:58.964Z,11.69
2022-09-22T04:39:58.960Z,11.62
2022-09-22T04:40:58.962Z,11.58
2022-09-22T04:41:59.010Z,11.60
2022-09-22T04:42:58.979Z,11.61
2022-09-22T04:43:58.957Z,11.51
2022-09-22T04:44:58.954Z,11.54
2022-09-22T04:45:59.035Z,11.54
2022-09-22T04:46:58.954Z,11.49
2022-09-22T04:47:58.953Z,11.54
2022-09-22T04:48:58.951Z,11.57
2022-09-22T04:49:58.947Z,11.52
2022-09-22T04:50:58.947Z,11.55
2022-09-22T04:51:58.949Z,11.47
2022-09-22T04:52:58.945Z,11.47
2022-09-22T04:53:58.950Z,11.54
2022-09-22T04:54:58.941Z,11.44
2022-09-22T04:55:58.944Z,11.51
2022-09-22T04:56:58.939Z,11.40
2022-09-22T04:57:58.944Z,11.43
2022-09-22T04:58:58.972Z,11.44
2022-09-22T04:59:58.938Z,11.39
2022-09-22T05:00:58.995Z,11.40
2022-09-22T05:01:58.938Z,11.43
2022-09-22T05:02:58.971Z,11.37
2022-09-22T05:03:58.935Z,11.46
2022-09-22T05:04:58.933Z,11.35
2022-09-22T05:05:58.937Z,11.43
2022-09-22T05:06:58.937Z,11.37
2022-09-22T05:07:58.929Z,11.40
2022-09-22T05:08:58.937Z,11.39
2022-09-22T05:09:58.927Z,11.36
2022-09-22T05:10:58.926Z,11.44
2022-09-22T05:11:58.926Z,11.40
2022-09-22T05:12:58.926Z,11.33
2022-09-22T05:13:58.928Z,11.35
2022-09-22T05:14:58.944Z,11.37
2022-09-22T05:15:58.917Z,11.28
2022-09-22T05:16:58.919Z,11.25
2022-09-22T05:17:58.919Z,11.36
2022-09-22T05:18:58.914Z,11.39
2022-09-22T05:19:58.919Z,11.29
2022-09-22T05:20:58.918Z,11.32
2022-09-22T05:21:58.910Z,11.36
2022-09-22T05:22:58.918Z,11.25
2022-09-22T05:23:58.914Z,11.43
2022-09-22T05:24:58.913Z,11.39
2022-09-22T05:25:58.915Z,11.39
2022-09-22T05:26:58.908Z,11.37
2022-09-22T05:27:58.925Z,11.37
2022-09-22T05:28:58.907Z,11.36
2022-09-22T05:29:58.905Z,11.35
2022-09-22T05:30:58.924Z,11.35
2022-09-22T05:31:58.969Z,11.44
2022-09-22T05:32:58.905Z,11.35
2022-09-22T05:33:58.904Z,11.36
2022-09-22T05:34:58.900Z,11.37
2022-09-22T05:35:58.897Z,11.32
2022-09-22T05:36:58.898Z,11.36
2022-09-22T05:37:58.896Z,11.33
2022-09-22T05:38:58.899Z,11.39
2022-09-22T05:39:58.903Z,11.42
2022-09-22T05:40:58.888Z,11.37
2022-09-22T05:41:58.943Z,11.36
2022-09-22T05:42:58.888Z,11.39
2022-09-22T05:43:58.891Z,11.39
2022-09-22T05:44:58.884Z,11.35
2022-09-22T05:45:58.933Z,11.37
2022-09-22T05:46:58.913Z,11.51
2022-09-22T05:47:58.888Z,11.43
2022-09-22T05:48:58.882Z,11.46
2022-09-22T05:49:58.880Z,11.54
2022-09-22T05:50:58.882Z,11.47
2022-09-22T05:51:58.883Z,11.49
2022-09-22T05:52:58.875Z,11.57
2022-09-22T05:53:58.876Z,11.60
2022-09-22T05:54:58.878Z,11.65
2022-09-22T05:55:58.876Z,11.72
2022-09-22T05:56:58.873Z,11.76
2022-09-22T05:57:58.874Z,11.75
2022-09-22T05:58:58.872Z,11.72
2022-09-22T05:59:58.870Z,11.90
2022-09-22T06:00:58.927Z,11.90
2022-09-22T06:02:00.159Z,12.02
2022-09-22T06:02:58.936Z,11.96
2022-09-22T06:03:58.868Z,11.94
2022-09-22T06:04:58.861Z,11.94
2022-09-22T06:05:58.864Z,11.98
2022-09-22T06:06:58.861Z,12.05
2022-09-22T06:07:58.867Z,12.04
2022-09-22T06:08:58.931Z,12.13
2022-09-22T06:09:58.859Z,12.13
2022-09-22T06:10:58.858Z,12.10
2022-09-22T06:11:58.863Z,12.14
2022-09-22T06:12:58.857Z,12.14
2022-09-22T06:13:58.855Z,12.23
2022-09-22T06:14:58.851Z,12.23
2022-09-22T06:15:58.922Z,12.19
2022-09-22T06:16:58.849Z,12.32
2022-09-22T06:17:58.851Z,12.29
2022-09-22T06:18:58.870Z,12.39
2022-09-22T06:19:58.843Z,12.47
2022-09-22T06:20:58.846Z,12.39
2022-09-22T06:21:58.844Z,12.57
2022-09-22T06:22:58.843Z,12.56
2022-09-22T06:23:58.846Z,12.70
2022-09-22T06:24:58.841Z,12.70
2022-09-22T06:25:58.847Z,12.71
2022-09-22T06:26:58.838Z,12.82
2022-09-22T06:27:58.841Z,12.89
2022-09-22T06:28:58.836Z,13.03
2022-09-22T06:29:58.841Z,13.03
2022-09-22T06:30:58.833Z,13.19
2022-09-22T06:31:58.921Z,13.19
2022-09-22T06:32:58.835Z,13.20
2022-09-22T06:33:58.831Z,13.19
2022-09-22T06:34:58.852Z,13.36
2022-09-22T06:35:58.831Z,13.46
2022-09-22T06:36:58.828Z,13.51
2022-09-22T06:37:58.832Z,13.69
2022-09-22T06:38:58.826Z,13.71
2022-09-22T06:39:58.835Z,13.75
2022-09-22T06:40:58.858Z,13.70
2022-09-22T06:41:58.876Z,13.88
2022-09-22T06:42:58.820Z,13.97
2022-09-22T06:43:58.823Z,13.97
2022-09-22T06:44:58.822Z,14.10
2022-09-22T06:45:58.926Z,14.12
2022-09-22T06:46:58.828Z,14.15
2022-09-22T06:47:58.827Z,14.18
2022-09-22T06:48:58.820Z,14.25
2022-09-22T06:49:58.822Z,14.43
2022-09-22T06:50:58.853Z,14.43
2022-09-22T06:51:58.820Z,14.54
2022-09-22T06:52:58.814Z,14.62
2022-09-22T06:53:58.940Z,14.72
2022-09-22T06:54:58.811Z,14.73
2022-09-22T06:55:58.815Z,14.84
2022-09-22T06:56:58.814Z,14.98
2022-09-22T06:57:58.816Z,15.09
2022-09-22T06:59:09.945Z,15.17
2022-09-22T06:59:58.812Z,15.43
2022-09-22T07:00:58.914Z,15.47
2022-09-22T07:01:58.957Z,15.72
2022-09-22T07:02:58.811Z,15.92
2022-09-22T07:03:58.807Z,16.24
2022-09-22T07:04:58.816Z,16.66
2022-09-22T07:05:58.812Z,17.08
2022-09-22T07:06:58.828Z,17.82
2022-09-22T07:07:58.806Z,18.50
2022-09-22T07:08:58.805Z,19.26
2022-09-22T07:09:58.807Z,20.06
2022-09-22T07:10:58.803Z,21.04
2022-09-22T07:11:58.809Z,21.77
2022-09-22T07:12:58.810Z,22.46
2022-09-22T07:13:58.809Z,23.15
2022-09-22T07:14:58.803Z,23.78
2022-09-22T07:15:58.860Z,24.25
2022-09-22T07:16:58.805Z,24.50
2022-09-22T07:17:58.805Z,24.96
2022-09-22T07:18:58.808Z,25.24
2022-09-22T07:19:58.809Z,25.79
2022-09-22T07:20:58.803Z,26.26
2022-09-22T07:21:58.809Z,26.57
2022-09-22T07:22:58.824Z,27.22
2022-09-22T07:24:05.176Z,27.59
2022-09-22T07:24:58.807Z,27.92
2022-09-22T07:25:58.807Z,27.87
2022-09-22T07:26:58.803Z,27.81
2022-09-22T07:27:58.810Z,27.85
2022-09-22T07:28:58.802Z,27.72
2022-09-22T07:29:58.809Z,27.72
2022-09-22T07:30:58.808Z,27.40
2022-09-22T07:31:58.849Z,27.28
2022-09-22T07:32:58.804Z,27.10
2022-09-22T07:33:58.806Z,26.84
2022-09-22T07:34:58.808Z,26.48
2022-09-22T07:35:58.810Z,26.10
2022-09-22T07:36:58.805Z,25.97
2022-09-22T07:37:58.816Z,26.01
2022-09-22T07:38:58.831Z,25.90
2022-09-22T07:39:58.816Z,25.76
2022-09-22T07:40:58.806Z,25.82
2022-09-22T07:41:58.808Z,25.64
2022-09-22T07:42:58.812Z,25.55
2022-09-22T07:43:58.813Z,25.57
2022-09-22T07:44:58.810Z,25.40
2022-09-22T07:45:58.813Z,25.23
2022-09-22T07:46:58.904Z,25.25
2022-09-22T07:47:58.813Z,25.38
2022-09-22T07:48:58.810Z,25.50
2022-09-22T07:49:58.817Z,25.62
2022-09-22T07:50:58.814Z,25.64
2022-09-22T07:51:58.826Z,25.73
2022-09-22T07:52:58.816Z,25.65
2022-09-22T07:53:58.817Z,25.58
2022-09-22T07:54:58.843Z,25.40
2022-09-22T07:55:58.818Z,25.50
2022-09-22T07:56:59.205Z,25.47
2022-09-22T07:57:58.823Z,25.52
2022-09-22T07:58:58.819Z,25.38
2022-09-22T07:59:58.823Z,25.45
2022-09-22T08:00:58.915Z,25.57
2022-09-22T08:01:58.849Z,25.64
2022-09-22T08:02:58.831Z,25.65
2022-09-22T08:03:58.822Z,25.58
2022-09-22T08:04:58.827Z,25.60
2022-09-22T08:06:01.409Z,25.72
2022-09-22T08:06:58.830Z,25.77
2022-09-22T08:07:58.835Z,25.98
2022-09-22T08:08:58.825Z,26.10
2022-09-22T08:09:58.830Z,26.39
2022-09-22T08:10:58.850Z,26.32
2022-09-22T08:11:58.832Z,26.29
2022-09-22T08:12:58.835Z,26.40
2022-09-22T08:13:58.831Z,26.39
2022-09-22T08:14:58.834Z,26.39
2022-09-22T08:15:58.865Z,26.51
2022-09-22T08:16:58.839Z,26.60
2022-09-22T08:17:58.840Z,26.67
2022-09-22T08:18:58.842Z,26.76
2022-09-22T08:19:58.841Z,27.03
2022-09-22T08:20:58.849Z,27.18
2022-09-22T08:21:58.846Z,27.39
2022-09-22T08:22:58.846Z,27.51
2022-09-22T08:23:58.851Z,27.62
2022-09-22T08:24:58.849Z,27.81
2022-09-22T08:25:58.854Z,27.92
2022-09-22T08:26:58.875Z,27.90
2022-09-22T08:27:58.861Z,27.97
2022-09-22T08:28:58.858Z,28.06
2022-09-22T08:29:58.863Z,27.97
2022-09-22T08:30:58.968Z,28.03
2022-09-22T08:31:58.864Z,27.97
2022-09-22T08:32:58.867Z,28.11
2022-09-22T08:33:58.870Z,28.09
2022-09-22T08:34:58.881Z,28.24
2022-09-22T08:35:58.878Z,28.30
2022-09-22T08:36:58.873Z,28.34
2022-09-22T08:37:58.883Z,28.36
2022-09-22T08:38:58.881Z,28.33
2022-09-22T08:39:58.891Z,28.51
2022-09-22T08:40:58.887Z,28.48
2022-09-22T08:41:58.893Z,28.44
2022-09-22T08:42:58.922Z,28.40
2022-09-22T08:43:58.898Z,28.06
2022-09-22T08:44:58.918Z,27.72
2022-09-22T08:45:58.905Z,27.54
2022-09-22T08:46:58.945Z,27.65
2022-09-22T08:47:58.927Z,27.63
2022-09-22T08:48:58.912Z,27.28
2022-09-22T08:49:58.920Z,26.55
2022-09-22T08:50:58.922Z,26.01
2022-09-22T08:51:58.928Z,25.45
2022-09-22T08:52:58.932Z,25.18
2022-09-22T08:54:03.289Z,24.81
2022-09-22T08:54:58.938Z,24.52
2022-09-22T08:55:58.941Z,24.34
2022-09-22T08:56:58.952Z,24.43
2022-09-22T08:57:58.950Z,24.76
2022-09-22T08:58:58.974Z,25.02
2022-09-22T08:59:58.960Z,25.36
2022-09-22T09:00:58.961Z,25.39
2022-09-22T09:01:59.006Z,25.39
2022-09-22T09:02:59.035Z,25.52
2022-09-22T09:03:58.973Z,25.33
2022-09-22T09:04:58.977Z,25.25
2022-09-22T09:05:58.993Z,25.02
2022-09-22T09:06:58.985Z,24.76
2022-09-22T09:07:58.994Z,24.95
2022-09-22T09:09:04.052Z,25.70
2022-09-22T09:09:59.011Z,26.28
2022-09-22T09:10:59.009Z,26.89
2022-09-22T09:11:59.014Z,27.74
2022-09-22T09:13:59.025Z,27.77
2022-09-22T09:14:59.059Z,27.36
2022-09-22T09:15:59.112Z,27.06
2022-09-22T09:16:59.044Z,27.60
2022-09-22T09:17:59.055Z,27.34
2022-09-22T09:18:59.056Z,27.02
2022-09-22T09:19:59.066Z,27.06
2022-09-22T09:20:59.072Z,26.60
2022-09-22T09:21:59.082Z,26.37
2022-09-22T09:22:59.084Z,25.94
2022-09-22T09:25:59.105Z,25.02
2022-09-22T09:26:59.119Z,24.76
2022-09-22T09:27:59.122Z,24.71
2022-09-22T09:29:03.514Z,24.84
2022-09-22T09:29:59.135Z,24.62
2022-09-22T09:30:59.262Z,24.47
2022-09-22T09:31:59.141Z,24.22
2022-09-22T09:32:59.152Z,23.95
2022-09-22T09:33:59.155Z,23.80
2022-09-22T09:34:59.221Z,23.61
2022-09-22T09:35:59.166Z,23.50
2022-09-22T09:36:59.173Z,23.38
2022-09-22T09:37:59.178Z,23.61
2022-09-22T09:38:59.183Z,23.47
2022-09-22T09:39:59.186Z,23.27
2022-09-22T09:40:59.196Z,23.12
2022-09-22T09:41:59.195Z,22.94
2022-09-22T09:42:59.207Z,22.76
2022-09-22T09:43:59.209Z,22.68
2022-09-22T09:44:59.210Z,22.60
2022-09-22T09:45:59.274Z,22.35
2022-09-22T09:46:59.250Z,22.37
2022-09-22T09:47:59.434Z,22.17
2022-09-22T09:48:59.229Z,22.17
2022-09-22T09:49:59.231Z,23.07
2022-09-22T09:50:59.235Z,24.02
2022-09-22T09:51:59.240Z,24.93
2022-09-22T09:52:59.245Z,25.54
2022-09-22T09:53:59.250Z,26.77
2022-09-22T09:54:59.252Z,26.58
2022-09-22T09:55:59.265Z,26.28
2022-09-22T09:56:59.261Z,25.73
2022-09-22T09:57:59.266Z,25.28
2022-09-22T09:58:59.354Z,25.00
2022-09-22T09:59:59.282Z,24.67
2022-09-22T10:00:59.281Z,24.42
2022-09-22T10:01:59.328Z,24.06
2022-09-22T10:02:59.307Z,23.91
2022-09-22T10:03:59.367Z,25.03
2022-09-22T10:04:59.297Z,26.47
2022-09-22T10:05:59.296Z,26.32
2022-09-22T10:07:01.532Z,25.87
2022-09-22T10:07:59.308Z,25.55
2022-09-22T10:08:59.314Z,25.20
2022-09-22T10:09:59.317Z,24.85
2022-09-22T10:10:59.326Z,24.85
2022-09-22T10:11:59.327Z,24.80
2022-09-22T10:12:59.328Z,25.02
2022-09-22T10:13:59.339Z,25.95
2022-09-22T10:14:59.347Z,27.07
2022-09-22T10:15:59.397Z,28.14
2022-09-22T10:16:59.348Z,28.30
2022-09-22T10:17:59.352Z,28.61
2022-09-22T10:18:59.375Z,28.67
2022-09-22T10:19:59.363Z,28.78
2022-09-22T10:20:59.364Z,28.19
2022-09-22T10:21:59.374Z,28.27
2022-09-22T10:22:59.375Z,27.85
2022-09-22T10:23:59.380Z,27.25
2022-09-22T10:24:59.388Z,26.63
2022-09-22T10:25:59.392Z,26.15
2022-09-22T10:27:02.406Z,25.79
2022-09-22T10:27:59.408Z,25.45
2022-09-22T10:28:59.405Z,25.03
2022-09-22T10:29:59.414Z,24.65
2022-09-22T10:30:59.480Z,24.34
2022-09-22T10:31:59.423Z,24.20
2022-09-22T10:32:59.429Z,24.32
2022-09-22T10:33:59.436Z,25.88
2022-09-22T10:34:59.468Z,27.27
2022-09-22T10:35:59.439Z,28.43
2022-09-22T10:36:59.447Z,29.55
2022-09-22T10:37:59.446Z,29.95
2022-09-22T10:39:00.010Z,30.35
2022-09-22T10:39:59.457Z,30.98
2022-09-22T10:40:59.471Z,31.68
2022-09-22T10:41:59.476Z,32.37
2022-09-22T10:42:59.474Z,32.89
2022-09-22T10:44:03.134Z,33.54
2022-09-22T10:44:59.486Z,34.10
2022-09-22T10:45:59.533Z,34.65
2022-09-22T10:46:59.497Z,35.10
2022-09-22T10:47:59.499Z,35.71
2022-09-22T10:48:59.509Z,36.20
2022-09-22T10:49:59.517Z,36.57
2022-09-22T10:50:59.562Z,36.99
2022-09-22T10:51:59.524Z,37.12
2022-09-22T10:52:59.532Z,36.95
2022-09-22T10:53:59.540Z,37.02
2022-09-22T10:54:59.543Z,37.12
2022-09-22T10:55:59.556Z,37.27
2022-09-22T10:56:59.557Z,37.46
2022-09-22T10:57:59.564Z,37.70
2022-09-22T10:58:59.571Z,37.89
2022-09-22T10:59:59.591Z,38.18
2022-09-22T11:00:59.592Z,38.54
2022-09-22T11:01:59.701Z,38.35
2022-09-22T11:02:59.605Z,37.06
2022-09-22T11:03:59.740Z,35.63
2022-09-22T11:04:59.674Z,34.49
2022-09-22T11:05:59.637Z,33.97
2022-09-22T11:06:59.670Z,34.44
2022-09-22T11:07:59.644Z,34.88
2022-09-22T11:08:59.652Z,34.53
2022-09-22T11:09:59.668Z,35.06
2022-09-22T11:10:59.672Z,35.59
2022-09-22T11:11:59.673Z,36.29
2022-09-22T11:12:59.680Z,36.91
2022-09-22T11:13:59.725Z,37.12
2022-09-22T11:14:59.697Z,37.43
2022-09-22T11:15:59.733Z,37.47
2022-09-22T11:16:59.716Z,37.47
2022-09-22T11:17:59.721Z,37.39
2022-09-22T11:18:59.730Z,36.91
2022-09-22T11:19:59.737Z,36.75
2022-09-22T11:20:59.747Z,36.50
2022-09-22T11:21:59.760Z,36.23
2022-09-22T11:22:59.792Z,36.17
2022-09-22T11:23:59.771Z,36.07
2022-09-22T11:24:59.776Z,35.94
2022-09-22T11:25:59.820Z,35.94
2022-09-22T11:26:59.803Z,35.87
2022-09-22T11:27:59.803Z,35.85
2022-09-22T11:28:59.812Z,35.80
2022-09-22T11:29:59.815Z,35.34
2022-09-22T11:30:59.861Z,34.75
2022-09-22T11:31:59.835Z,34.17
2022-09-22T11:32:59.838Z,33.72
2022-09-22T11:33:59.848Z,33.26
2022-09-22T11:34:59.855Z,33.18
2022-09-22T11:35:59.864Z,32.92
2022-09-22T11:36:59.868Z,32.88
2022-09-22T11:37:59.878Z,32.19
2022-09-22T11:38:59.912Z,32.19
2022-09-22T11:39:59.891Z,32.15
2022-09-22T11:40:59.899Z,32.30
2022-09-22T11:41:59.906Z,32.11
2022-09-22T11:43:03.692Z,31.91
2022-09-22T11:44:00.136Z,31.58
2022-09-22T11:44:59.926Z,31.28
2022-09-22T11:45:59.967Z,31.06
2022-09-22T11:46:59.947Z,30.89
2022-09-22T11:47:59.947Z,30.58
2022-09-22T11:48:59.954Z,30.49
2022-09-22T11:49:59.958Z,30.45
2022-09-22T11:50:59.965Z,30.69
2022-09-22T11:51:59.978Z,30.62
2022-09-22T11:52:59.978Z,30.61
2022-09-22T11:54:00.099Z,30.72
2022-09-22T11:55:01.042Z,30.70
2022-09-22T11:55:59.996Z,30.69
2022-09-22T11:57:00.005Z,30.29
2022-09-22T11:58:00.008Z,30.00
2022-09-22T11:59:00.014Z,29.67
2022-09-22T12:00:00.026Z,29.57
2022-09-22T12:01:00.029Z,29.42
2022-09-22T12:02:00.130Z,29.21
2022-09-22T12:03:03.079Z,29.16
2022-09-22T12:04:00.046Z,28.96
2022-09-22T12:05:00.057Z,28.70
2022-09-22T12:06:00.053Z,28.52
2022-09-22T12:07:00.076Z,28.58
2022-09-22T12:08:00.071Z,28.49
2022-09-22T12:09:00.123Z,28.48
2022-09-22T12:10:00.098Z,28.49
2022-09-22T12:11:00.100Z,28.39
2022-09-22T12:12:00.099Z,28.31
2022-09-22T12:13:00.108Z,28.18
2022-09-22T12:14:00.115Z,27.92
2022-09-22T12:15:00.119Z,27.59
2022-09-22T12:16:00.296Z,27.27
2022-09-22T12:17:00.104Z,27.17
2022-09-22T12:18:00.110Z,27.18
2022-09-22T12:19:00.176Z,27.07
2022-09-22T12:20:00.331Z,26.88
2022-09-22T12:21:00.121Z,26.82
2022-09-22T12:22:00.132Z,26.67
2022-09-22T12:23:00.130Z,26.63
2022-09-22T12:24:00.146Z,26.62
2022-09-22T12:25:00.218Z,26.65
2022-09-22T12:26:00.147Z,26.40
2022-09-22T12:27:00.167Z,26.37
2022-09-22T12:28:00.151Z,26.20
2022-09-22T12:29:00.156Z,26.07
2022-09-22T12:30:00.197Z,25.97
2022-09-22T12:31:00.306Z,25.70
2022-09-22T12:32:00.163Z,25.58
2022-09-22T12:33:00.174Z,25.51
2022-09-22T12:34:00.174Z,25.62
2022-09-22T12:35:00.184Z,25.52
2022-09-22T12:36:00.180Z,25.55
2022-09-22T12:37:00.182Z,25.36
2022-09-22T12:38:00.188Z,25.32
2022-09-22T12:39:00.191Z,25.24
2022-09-22T12:40:00.189Z,25.33
2022-09-22T12:41:00.192Z,25.23
2022-09-22T12:42:00.197Z,25.10
2022-09-22T12:43:00.235Z,25.15
2022-09-22T12:44:00.210Z,25.18
2022-09-22T12:45:00.218Z,25.23
2022-09-22T12:46:00.280Z,25.08
2022-09-22T12:47:00.291Z,25.13
2022-09-22T12:48:00.218Z,25.18
2022-09-22T12:49:00.323Z,25.18
2022-09-22T12:50:00.230Z,25.27
2022-09-22T12:51:00.222Z,25.27
2022-09-22T12:52:00.227Z,25.40
2022-09-22T12:53:00.238Z,25.46
2022-09-22T12:54:00.272Z,25.32
2022-09-22T12:55:00.234Z,25.24
2022-09-22T12:56:00.236Z,25.15